Time;durP1;ratioP1;P1;durP2;ratioP2;P2;SDS_P1;SDS_P2;PMS_P1;PMS_P2;Temp;Humidity;BMP_temperature;BMP_pressure;BME280_temperature;BME280_humidity;BME280_pressure;Samples;Min_cycle;Max_cycle;Signal;HPM_P1;HPM_P2
2022/02/14 00:01:48;;;;;;;;;6.00;6.00;;;;;13.12;54.66;99613.78;5042025;28;46997;-44
2022/02/14 00:04:14;;;;;;;;;5.25;5.00;;;;;13.05;54.32;99623.69;5042569;28;45421;-44
2022/02/14 00:06:39;;;;;;;;;6.50;6.00;;;;;12.99;54.10;99614.28;5042620;28;45509;-47
2022/02/14 00:09:04;;;;;;;;;8.00;6.75;;;;;12.91;54.48;99607.63;5042274;28;45265;-46
2022/02/14 00:11:30;;;;;;;;;8.00;5.25;;;;;12.81;54.79;99615.88;5042304;28;47311;-43
2022/02/14 00:13:55;;;;;;;;;10.00;9.00;;;;;12.77;54.59;99605.56;5042297;28;45387;-45
2022/02/14 00:16:20;;;;;;;;;6.00;5.00;;;;;12.71;54.92;99604.00;5042220;28;45279;-47
2022/02/14 00:18:46;;;;;;;;;6.75;4.75;;;;;12.64;54.89;99598.16;5042223;28;45358;-44
2022/02/14 00:21:11;;;;;;;;;7.00;5.00;;;;;12.56;54.68;99588.84;5042189;28;45406;-45
2022/02/14 00:23:36;;;;;;;;;6.00;5.25;;;;;12.48;54.69;99592.63;5041920;28;45300;-46
2022/02/14 00:26:02;;;;;;;;;8.25;7.75;;;;;12.50;54.78;99590.81;5042241;28;45443;-44
2022/02/14 00:28:29;;;;;;;;;9.00;7.00;;;;;12.44;54.78;99585.78;5041979;28;45311;-46
2022/02/14 00:30:54;;;;;;;;;8.50;8.25;;;;;12.39;55.04;99582.47;5040338;28;45281;-47
2022/02/14 00:33:19;;;;;;;;;7.75;6.75;;;;;12.35;54.91;99578.22;5041585;28;45255;-42
2022/02/14 00:35:45;;;;;;;;;6.25;6.25;;;;;12.34;55.14;99571.28;5042172;28;45229;-42
2022/02/14 00:38:12;;;;;;;;;9.50;7.25;;;;;12.33;55.10;99580.94;5041797;28;45508;-42
2022/02/14 00:40:37;;;;;;;;;7.00;7.00;;;;;12.32;54.70;99571.31;5041668;28;46288;-42
2022/02/14 00:43:03;;;;;;;;;6.50;5.00;;;;;12.28;54.96;99566.25;5040152;28;45324;-44
2022/02/14 00:45:29;;;;;;;;;6.00;5.25;;;;;12.24;55.20;99565.50;5041874;28;45354;-47
2022/02/14 00:47:54;;;;;;;;;4.50;4.50;;;;;12.24;55.14;99568.13;5040103;28;45512;-46
2022/02/14 00:50:19;;;;;;;;;5.75;5.50;;;;;12.22;55.18;99563.84;5040280;28;48395;-46
2022/02/14 00:52:45;;;;;;;;;6.25;5.00;;;;;12.22;55.47;99559.44;5040202;28;45327;-45
2022/02/14 00:55:12;;;;;;;;;5.00;5.00;;;;;12.21;55.51;99557.72;5041716;27;45319;-45
2022/02/14 00:57:38;;;;;;;;;7.25;5.25;;;;;12.21;55.23;99562.13;5041522;28;45648;-47
2022/02/14 01:00:07;;;;;;;;;4.50;4.50;;;;;12.23;55.26;99560.31;5041353;28;46027;-45
2022/02/14 01:02:33;;;;;;;;;5.75;5.00;;;;;12.21;55.49;99544.53;5041193;28;45252;-44
2022/02/14 01:04:58;;;;;;;;;6.50;6.50;;;;;12.22;55.42;99556.78;5041563;28;45224;-47
2022/02/14 01:07:24;;;;;;;;;5.50;5.00;;;;;12.21;55.65;99543.69;5041503;28;45342;-43
2022/02/14 01:09:49;;;;;;;;;4.25;4.25;;;;;12.25;55.43;99547.91;5041161;28;45332;-46
2022/02/14 01:12:15;;;;;;;;;6.00;6.00;;;;;12.23;55.40;99541.88;5041456;28;45276;-43
2022/02/14 01:14:41;;;;;;;;;8.25;5.25;;;;;12.23;55.66;99545.34;5041498;28;45340;-47
2022/02/14 01:17:07;;;;;;;;;6.50;5.00;;;;;12.25;55.56;99540.88;5041081;28;45299;-44
2022/02/14 01:19:33;;;;;;;;;7.75;6.50;;;;;12.23;55.59;99526.06;5041318;28;45461;-45
2022/02/14 01:21:58;;;;;;;;;7.75;5.50;;;;;12.27;55.63;99536.41;5039942;28;45278;-45
2022/02/14 01:24:24;;;;;;;;;5.25;5.25;;;;;12.27;55.68;99533.75;5041081;28;45531;-44
2022/02/14 01:26:50;;;;;;;;;6.50;5.75;;;;;12.32;55.88;99544.13;5039784;28;45316;-43
2022/02/14 01:29:15;;;;;;;;;6.25;6.25;;;;;12.31;55.87;99540.63;5053273;28;46028;-44
2022/02/14 01:31:41;;;;;;;;;6.25;5.50;;;;;12.35;55.86;99523.78;5039991;28;45211;-43
2022/02/14 01:34:07;;;;;;;;;6.00;5.00;;;;;12.35;55.73;99546.63;5039925;28;45478;-43
2022/02/14 01:36:32;;;;;;;;;9.00;5.50;;;;;12.38;55.88;99543.00;5040918;28;45228;-45
2022/02/14 01:38:57;;;;;;;;;7.25;4.75;;;;;12.40;55.78;99534.13;5040790;28;45244;-42
2022/02/14 01:41:23;;;;;;;;;6.00;6.00;;;;;12.45;55.87;99526.91;5040886;28;45217;-45
2022/02/14 01:43:48;;;;;;;;;6.25;6.25;;;;;12.46;55.88;99527.75;5040279;28;45295;-46
2022/02/14 01:46:13;;;;;;;;;7.75;6.00;;;;;12.53;55.76;99508.13;5040503;28;45567;-44
2022/02/14 01:48:39;;;;;;;;;7.50;5.00;;;;;12.53;55.97;99529.22;5040758;28;46622;-44
2022/02/14 01:51:05;;;;;;;;;5.00;3.50;;;;;12.54;55.82;99523.03;5040707;28;45323;-44
2022/02/14 01:53:31;;;;;;;;;6.75;5.00;;;;;12.56;56.24;99513.25;5040861;28;45272;-44
2022/02/14 01:55:56;;;;;;;;;8.00;6.00;;;;;12.59;56.03;99521.06;5040601;28;45319;-46
2022/02/14 01:58:22;;;;;;;;;5.25;5.00;;;;;12.62;55.86;99517.44;5040582;28;45371;-43
2022/02/14 02:00:48;;;;;;;;;8.00;7.00;;;;;12.63;56.17;99520.00;5040149;28;45269;-47
2022/02/14 02:03:15;;;;;;;;;5.00;4.00;;;;;12.66;55.93;99513.75;5040669;28;45288;-45
2022/02/14 02:05:43;;;;;;;;;5.50;5.50;;;;;12.65;56.18;99507.63;5040392;28;45515;-47
2022/02/14 02:08:08;;;;;;;;;9.50;6.25;;;;;12.73;56.00;99503.78;5040314;28;45266;-46
2022/02/14 02:10:36;;;;;;;;;5.25;5.25;;;;;12.70;56.40;99496.03;5040229;28;45305;-44
2022/02/14 02:13:01;;;;;;;;;7.00;6.00;;;;;12.74;55.88;99498.47;5040555;28;45261;-43
2022/02/14 02:15:27;;;;;;;;;6.50;5.25;;;;;12.75;55.85;99501.94;5040266;28;45418;-47
2022/02/14 02:17:52;;;;;;;;;5.75;4.00;;;;;12.77;55.97;99489.56;5040022;28;46919;-43
2022/02/14 02:20:19;;;;;;;;;7.25;5.00;;;;;12.80;56.13;99486.78;5040363;28;45338;-44
2022/02/14 02:22:47;;;;;;;;;5.00;5.00;;;;;12.84;56.39;99483.09;5040460;28;45411;-46
2022/02/14 02:25:14;;;;;;;;;6.25;6.25;;;;;12.82;56.12;99485.78;5039013;28;45286;-44
2022/02/14 02:27:42;;;;;;;;;7.75;6.25;;;;;12.86;56.36;99491.78;5038639;28;46137;-44
2022/02/14 02:30:09;;;;;;;;;8.75;6.00;;;;;12.83;56.64;99486.66;5040032;28;45345;-46
2022/02/14 02:32:35;;;;;;;;;7.00;5.75;;;;;12.89;56.51;99485.53;5019013;28;45253;-44
2022/02/14 02:35:02;;;;;;;;;7.00;4.50;;;;;12.94;56.39;99502.88;5038824;28;45905;-45
2022/02/14 02:37:28;;;;;;;;;6.00;6.00;;;;;12.96;56.39;99493.09;5039778;28;46925;-46
2022/02/14 02:39:55;;;;;;;;;3.75;3.00;;;;;12.96;56.64;99489.63;5039806;28;45347;-43
2022/02/14 02:42:22;;;;;;;;;7.25;6.75;;;;;12.98;56.69;99469.28;5039984;28;45513;-45
2022/02/14 02:44:48;;;;;;;;;4.50;3.00;;;;;12.96;56.94;99485.19;5039733;28;45287;-42
2022/02/14 02:47:16;;;;;;;;;4.75;3.50;;;;;12.97;56.45;99452.63;5039331;28;45719;-43
2022/02/14 02:49:43;;;;;;;;;6.25;6.00;;;;;12.99;56.69;99477.16;5039665;28;45246;-45
2022/02/14 02:52:10;;;;;;;;;4.00;4.00;;;;;13.00;57.08;99485.91;5039813;28;45181;-45
2022/02/14 02:54:36;;;;;;;;;7.25;5.75;;;;;13.03;56.62;99474.38;5039094;28;45379;-47
2022/02/14 02:57:02;;;;;;;;;4.00;4.00;;;;;13.07;56.99;99471.53;5037749;28;46929;-45
2022/02/14 02:59:33;;;;;;;;;8.00;5.00;;;;;13.10;56.81;99481.09;5039827;28;45399;-44
2022/02/14 03:01:59;;;;;;;;;6.00;6.00;;;;;13.08;57.01;99465.34;5039473;28;45326;-47
2022/02/14 03:04:25;;;;;;;;;4.75;4.75;;;;;13.07;56.95;99475.94;5039497;28;45405;-44
2022/02/14 03:06:51;;;;;;;;;5.00;5.00;;;;;13.12;57.14;99476.63;5039295;28;46061;-45
2022/02/14 03:09:16;;;;;;;;;3.00;3.00;;;;;13.16;57.27;99471.13;5039705;28;45315;-46
2022/02/14 03:11:43;;;;;;;;;4.00;4.00;;;;;13.14;57.34;99462.44;5039697;28;45386;-45
2022/02/14 03:14:09;;;;;;;;;4.00;4.00;;;;;13.15;57.29;99471.19;5039822;28;45624;-44
2022/02/14 03:16:34;;;;;;;;;4.25;4.25;;;;;13.16;56.99;99478.19;5037773;28;45240;-45
2022/02/14 03:19:00;;;;;;;;;4.50;3.25;;;;;13.12;56.92;99461.63;5039486;28;45279;-43
2022/02/14 03:21:25;;;;;;;;;3.50;2.25;;;;;13.10;57.41;99452.09;5039557;28;45231;-43
2022/02/14 03:23:52;;;;;;;;;5.75;5.00;;;;;13.14;57.23;99469.47;5038052;28;45480;-44
2022/02/14 03:26:20;;;;;;;;;4.50;4.50;;;;;13.10;57.30;99466.13;5039271;28;46838;-43
2022/02/14 03:28:51;;;;;;;;;5.00;4.50;;;;;13.12;57.34;99473.97;5039368;28;45273;-44
2022/02/14 03:31:17;;;;;;;;;6.50;4.00;;;;;13.09;57.69;99468.81;5039173;28;45237;-45
2022/02/14 03:33:44;;;;;;;;;6.25;4.00;;;;;13.07;57.48;99466.25;5039265;28;45279;-43
2022/02/14 03:36:10;;;;;;;;;3.50;2.75;;;;;13.10;57.55;99473.19;5039006;28;45394;-42
2022/02/14 03:38:36;;;;;;;;;4.25;4.25;;;;;13.07;58.00;99470.66;5039318;28;45293;-43
2022/02/14 03:41:01;;;;;;;;;4.75;4.00;;;;;13.03;58.17;99461.19;5039078;28;45340;-44
2022/02/14 03:43:27;;;;;;;;;6.00;5.50;;;;;13.01;58.09;99469.16;5039121;28;45314;-45
2022/02/14 03:45:52;;;;;;;;;5.75;4.75;;;;;13.00;58.04;99486.78;5038719;28;45334;-47
2022/02/14 03:48:18;;;;;;;;;5.00;4.00;;;;;12.92;58.32;99501.22;5039130;28;45449;-48
2022/02/14 03:50:44;;;;;;;;;6.50;5.50;;;;;12.89;58.30;99491.66;5039168;28;45324;-43
2022/02/14 03:53:09;;;;;;;;;5.75;4.50;;;;;12.88;58.21;99518.97;5037778;28;45320;-47
2022/02/14 03:55:35;;;;;;;;;4.00;4.00;;;;;12.82;58.37;99506.88;5038811;28;45363;-45
2022/02/14 03:58:00;;;;;;;;;6.75;5.00;;;;;12.81;58.56;99510.44;5039147;28;45219;-43
2022/02/14 04:00:26;;;;;;;;;4.00;4.00;;;;;12.79;58.74;99514.94;5038751;28;45411;-45
2022/02/14 04:02:52;;;;;;;;;6.75;4.25;;;;;12.80;58.75;99521.94;5039097;28;45474;-44
2022/02/14 04:05:19;;;;;;;;;3.50;3.25;;;;;12.77;58.68;99532.59;5038781;28;46243;-46
2022/02/14 04:07:45;;;;;;;;;4.75;4.50;;;;;12.72;58.57;99541.63;5039855;28;45466;-43
2022/02/14 04:10:13;;;;;;;;;6.00;4.00;;;;;12.63;58.76;99524.44;5042198;28;45321;-43
2022/02/14 04:12:38;;;;;;;;;4.75;3.00;;;;;12.66;58.54;99526.91;5042195;28;45513;-46
2022/02/14 04:15:06;;;;;;;;;5.50;3.00;;;;;12.69;58.85;99539.94;5042198;28;45263;-46
2022/02/14 04:17:32;;;;;;;;;3.50;3.00;;;;;12.65;58.70;99554.19;5041951;28;45236;-44
2022/02/14 04:19:57;;;;;;;;;5.50;4.00;;;;;12.62;58.58;99591.22;5042280;28;45309;-44
2022/02/14 04:22:23;;;;;;;;;1.00;1.00;;;;;12.56;58.68;99594.09;5042322;28;45433;-47
2022/02/14 04:24:49;;;;;;;;;0.00;0.00;;;;;12.47;58.62;99590.91;5041709;28;45995;-44
2022/02/14 04:27:15;;;;;;;;;0.00;0.00;;;;;12.44;58.21;99595.44;5041988;28;45308;-45
2022/02/14 04:29:40;;;;;;;;;0.00;0.00;;;;;12.39;57.86;99602.69;5041900;28;45299;-45
2022/02/14 04:32:06;;;;;;;;;0.00;0.00;;;;;12.32;58.04;99600.28;5041818;28;45304;-45
2022/02/14 04:34:33;;;;;;;;;0.00;0.00;;;;;12.28;57.63;99611.88;5041704;28;45397;-47
2022/02/14 04:36:59;;;;;;;;;1.00;0.00;;;;;12.21;57.43;99615.66;5041770;28;45367;-47
2022/02/14 04:39:24;;;;;;;;;0.00;0.00;;;;;12.13;57.51;99605.41;5041760;28;45269;-43
2022/02/14 04:41:49;;;;;;;;;0.00;0.00;;;;;12.09;57.42;99616.13;5040664;28;45240;-47
2022/02/14 04:44:15;;;;;;;;;0.00;0.00;;;;;12.00;57.29;99626.09;5041516;28;46114;-46
2022/02/14 04:46:40;;;;;;;;;0.00;0.00;;;;;11.98;57.04;99627.09;5041561;28;45326;-44
2022/02/14 04:49:07;;;;;;;;;1.00;0.00;;;;;11.93;57.40;99647.44;5041903;28;46063;-45
2022/02/14 04:51:34;;;;;;;;;0.50;0.00;;;;;11.90;57.39;99634.34;5041766;28;45162;-46
2022/02/14 04:54:01;;;;;;;;;0.00;0.00;;;;;11.83;57.03;99641.63;5040256;28;46140;-45
2022/02/14 04:56:27;;;;;;;;;0.00;0.00;;;;;11.76;56.95;99648.03;5040419;28;45406;-42
2022/02/14 04:58:53;;;;;;;;;0.00;0.00;;;;;11.75;56.99;99659.47;5040408;28;45565;-45
2022/02/14 05:01:18;;;;;;;;;0.00;0.00;;;;;11.71;57.15;99672.75;5041275;28;45530;-46
2022/02/14 05:03:43;;;;;;;;;0.00;0.00;;;;;11.67;57.03;99673.78;5041670;28;47030;-48
2022/02/14 05:06:09;;;;;;;;;1.00;0.00;;;;;11.63;57.19;99681.84;5041550;28;45311;-45
2022/02/14 05:08:34;;;;;;;;;0.00;0.00;;;;;11.60;57.21;99688.06;5041574;28;45771;-45
2022/02/14 05:11:00;;;;;;;;;0.00;0.00;;;;;11.58;57.14;99692.50;5041482;28;45488;-44
2022/02/14 05:13:25;;;;;;;;;1.75;0.50;;;;;11.54;57.17;99694.38;5040061;28;47051;-48
2022/02/14 05:15:51;;;;;;;;;0.00;0.00;;;;;11.48;57.33;99701.66;5041306;28;45743;-49
2022/02/14 05:18:17;;;;;;;;;1.00;0.00;;;;;11.49;57.05;99698.94;5040425;28;45257;-44
2022/02/14 05:20:42;;;;;;;;;0.50;0.50;;;;;11.44;57.06;99708.78;5041305;28;45423;-49
2022/02/14 05:23:09;;;;;;;;;0.00;0.00;;;;;11.44;57.15;99714.03;5040014;28;48086;-46
2022/02/14 05:25:34;;;;;;;;;0.00;0.00;;;;;11.40;57.20;99717.69;5041041;28;45341;-48
2022/02/14 05:28:00;;;;;;;;;0.00;0.00;;;;;11.35;57.24;99720.47;5041355;28;45292;-45
2022/02/14 05:30:25;;;;;;;;;0.00;0.00;;;;;11.30;57.16;99724.19;5041138;28;45333;-45
2022/02/14 05:32:51;;;;;;;;;1.00;0.00;;;;;11.28;57.43;99726.88;5040898;28;45961;-45
2022/02/14 05:35:16;;;;;;;;;0.00;0.00;;;;;11.25;57.41;99734.84;5041159;28;45291;-47
2022/02/14 05:37:41;;;;;;;;;0.00;0.00;;;;;11.20;57.45;99736.78;5041251;28;45310;-46
2022/02/14 05:40:08;;;;;;;;;0.00;0.00;;;;;11.21;57.29;99734.09;5041058;28;45531;-44
2022/02/14 05:42:33;;;;;;;;;2.00;0.00;;;;;11.17;57.31;99753.50;5040906;28;46219;-47
2022/02/14 05:44:59;;;;;;;;;0.00;0.00;;;;;11.14;57.21;99742.22;5040718;28;45320;-48
2022/02/14 05:47:25;;;;;;;;;1.25;0.00;;;;;11.11;57.39;99758.13;5040661;28;45282;-47
2022/02/14 05:49:51;;;;;;;;;0.75;0.00;;;;;11.05;57.61;99760.00;5040872;28;45510;-45
2022/02/14 05:52:16;;;;;;;;;0.00;0.00;;;;;11.00;57.49;99763.69;5040816;28;46405;-44
2022/02/14 05:54:42;;;;;;;;;2.25;0.00;;;;;10.99;57.38;99761.97;5040592;28;45329;-46
2022/02/14 05:57:07;;;;;;;;;0.00;0.00;;;;;10.97;57.59;99769.91;5040875;28;45235;-47
2022/02/14 05:59:33;;;;;;;;;0.00;0.00;;;;;10.94;57.50;99772.63;5040791;28;45403;-42
2022/02/14 06:01:58;;;;;;;;;0.00;0.00;;;;;10.92;57.69;99777.09;5040281;28;47082;-43
2022/02/14 06:04:23;;;;;;;;;0.50;0.50;;;;;10.89;57.47;99785.94;5040619;28;45224;-43
2022/02/14 06:06:49;;;;;;;;;0.75;0.00;;;;;10.87;57.53;99789.50;5040721;28;45393;-44
2022/02/14 06:09:15;;;;;;;;;0.00;0.00;;;;;10.84;57.46;99786.97;5040494;28;45595;-46
2022/02/14 06:11:40;;;;;;;;;0.75;0.00;;;;;10.81;57.51;99800.22;5040354;28;46059;-42
2022/02/14 06:14:06;;;;;;;;;0.25;0.25;;;;;10.79;57.50;99807.28;5040449;28;45519;-44
2022/02/14 06:16:31;;;;;;;;;0.00;0.00;;;;;10.75;57.38;99819.63;5040412;28;45310;-43
2022/02/14 06:18:57;;;;;;;;;0.00;0.00;;;;;10.67;57.78;99814.63;5039097;28;45361;-42
2022/02/14 06:21:23;;;;;;;;;1.00;0.00;;;;;10.68;57.57;99823.38;5054200;28;47262;-44
2022/02/14 06:23:49;;;;;;;;;1.25;1.25;;;;;10.65;57.65;99840.06;5040030;28;45232;-44
2022/02/14 06:26:15;;;;;;;;;0.00;0.00;;;;;10.61;57.43;99837.59;5040284;28;45297;-46
2022/02/14 06:28:40;;;;;;;;;0.00;0.00;;;;;10.56;57.70;99846.47;5040124;28;45309;-44
2022/02/14 06:31:07;;;;;;;;;2.00;1.00;;;;;10.56;57.71;99866.59;5039519;28;46984;-42
2022/02/14 06:33:32;;;;;;;;;1.00;0.00;;;;;10.51;57.78;99864.09;5040088;28;45181;-46
2022/02/14 06:35:58;;;;;;;;;0.00;0.00;;;;;10.49;57.73;99868.56;5040234;28;45297;-46
2022/02/14 06:38:23;;;;;;;;;1.50;1.00;;;;;10.47;57.60;99872.13;5040187;28;45434;-43
2022/02/14 06:40:48;;;;;;;;;1.50;0.00;;;;;10.43;57.82;99879.22;5039818;28;45216;-45
2022/02/14 06:43:14;;;;;;;;;0.00;0.00;;;;;10.42;57.62;99871.41;5038694;28;45487;-46
2022/02/14 06:45:39;;;;;;;;;0.00;0.00;;;;;10.40;57.75;99872.28;5039841;28;45319;-45
2022/02/14 06:48:05;;;;;;;;;1.00;1.00;;;;;10.39;57.73;99881.06;5039898;28;45363;-42
2022/02/14 06:50:30;;;;;;;;;0.00;0.00;;;;;10.37;57.63;99882.00;5039935;28;45523;-44
2022/02/14 06:52:56;;;;;;;;;0.50;0.00;;;;;10.39;57.61;99874.97;5039907;28;45295;-46
2022/02/14 06:55:21;;;;;;;;;1.75;1.75;;;;;10.38;57.39;99879.34;5039882;28;45318;-48
2022/02/14 06:57:47;;;;;;;;;1.00;1.00;;;;;10.40;57.71;99877.53;5039810;28;45344;-44
2022/02/14 07:00:14;;;;;;;;;2.00;0.00;;;;;10.38;57.67;99883.75;5039677;28;46226;-43
2022/02/14 07:02:40;;;;;;;;;1.25;1.25;;;;;10.36;57.49;99891.69;5039624;28;45303;-44
2022/02/14 07:05:06;;;;;;;;;0.00;0.00;;;;;10.36;57.71;99885.53;5039795;28;45327;-48
2022/02/14 07:07:31;;;;;;;;;2.75;1.00;;;;;10.35;57.52;99886.41;5039665;28;45540;-45
2022/02/14 07:09:57;;;;;;;;;3.25;3.00;;;;;10.35;57.51;99889.91;5039273;28;46322;-45
2022/02/14 07:12:22;;;;;;;;;6.75;5.25;;;;;10.36;57.54;99896.03;5039556;28;45323;-47
2022/02/14 07:14:48;;;;;;;;;4.25;1.00;;;;;10.35;57.36;99907.41;5039781;28;45434;-47
2022/02/14 07:17:13;;;;;;;;;1.50;1.25;;;;;10.34;57.71;99909.19;5039452;28;45470;-46
2022/02/14 07:19:39;;;;;;;;;8.25;7.75;;;;;10.33;57.68;99917.13;5039384;28;45898;-47
2022/02/14 07:22:05;;;;;;;;;1.00;1.00;;;;;10.25;57.73;99901.53;5039477;28;45346;-47
2022/02/14 07:24:31;;;;;;;;;4.00;2.00;;;;;10.31;57.58;99922.38;5039421;28;45268;-47
2022/02/14 07:26:56;;;;;;;;;1.50;1.00;;;;;10.27;57.18;99920.75;5038142;28;45474;-47
2022/02/14 07:29:22;;;;;;;;;2.50;1.00;;;;;10.27;57.76;99930.41;5038015;28;46154;-62
2022/02/14 07:31:47;;;;;;;;;1.00;1.00;;;;;10.24;57.58;99934.81;5038073;28;45767;-46
2022/02/14 07:34:12;;;;;;;;;2.00;2.00;;;;;10.23;57.69;99940.97;5039430;28;45322;-50
2022/02/14 07:36:38;;;;;;;;;1.00;0.00;;;;;10.23;57.70;99942.75;5039514;28;45240;-43
2022/02/14 07:39:04;;;;;;;;;2.00;2.00;;;;;10.22;57.75;99938.41;5039211;28;45332;-44
2022/02/14 07:41:30;;;;;;;;;1.50;0.00;;;;;10.20;57.74;99950.69;5039843;28;45416;-44
2022/02/14 07:43:55;;;;;;;;;1.00;1.00;;;;;10.20;57.94;99946.31;5041619;28;45457;-45
2022/02/14 07:46:21;;;;;;;;;3.00;1.00;;;;;10.18;57.70;99944.63;5042501;28;45639;-43
2022/02/14 07:48:47;;;;;;;;;1.75;1.75;;;;;10.18;57.92;99950.72;5042670;28;46869;-46
2022/02/14 07:51:17;;;;;;;;;2.75;0.75;;;;;10.17;57.87;99950.78;5041328;28;45562;-46
2022/02/14 07:53:43;;;;;;;;;2.00;2.00;;;;;10.15;57.84;99953.44;5042767;28;45352;-47
2022/02/14 07:56:12;;;;;;;;;2.25;1.00;;;;;10.14;57.90;99956.09;5042589;28;45341;-45
2022/02/14 07:58:38;;;;;;;;;2.50;1.00;;;;;10.12;57.78;99969.25;5042332;28;46736;-44
2022/02/14 08:01:04;;;;;;;;;3.75;3.00;;;;;10.11;58.18;99966.69;5042237;28;45311;-44
2022/02/14 08:03:30;;;;;;;;;2.50;2.50;;;;;10.11;58.13;99969.31;5042450;28;45320;-44
2022/02/14 08:05:56;;;;;;;;;2.25;2.00;;;;;10.09;58.11;99970.19;5042344;28;45318;-45
2022/02/14 08:08:21;;;;;;;;;1.50;1.00;;;;;10.05;58.18;99986.94;5042067;28;45407;-43
2022/02/14 08:10:47;;;;;;;;;3.00;2.00;;;;;10.03;57.98;99972.13;5042404;28;45469;-47
2022/02/14 08:13:12;;;;;;;;;2.50;2.50;;;;;10.05;58.05;99980.81;5042404;28;45257;-46
2022/02/14 08:15:37;;;;;;;;;1.00;1.00;;;;;10.05;58.05;99981.69;5042269;28;45388;-47
2022/02/14 08:18:07;;;;;;;;;4.50;1.00;;;;;10.03;58.01;99985.25;5042193;28;45379;-44
2022/02/14 08:20:33;;;;;;;;;3.25;1.50;;;;;10.03;57.97;99983.47;5042407;28;45453;-47
2022/02/14 08:22:59;;;;;;;;;10.50;7.00;;;;;10.03;58.18;99996.59;5042145;28;45464;-44
2022/02/14 08:25:24;;;;;;;;;1.00;0.75;;;;;10.03;58.27;99993.97;5041932;28;45379;-45
2022/02/14 08:27:49;;;;;;;;;2.75;1.25;;;;;10.05;57.99;100002.69;5040703;28;47101;-46
2022/02/14 08:30:14;;;;;;;;;1.00;1.00;;;;;10.09;57.91;100003.47;5041892;28;45391;-44
2022/02/14 08:32:40;;;;;;;;;2.75;1.00;;;;;10.02;58.22;100002.75;5040936;28;45309;-45
2022/02/14 08:35:07;;;;;;;;;2.50;2.50;;;;;10.07;57.99;100011.41;5042091;28;45377;-43
2022/02/14 08:37:32;;;;;;;;;1.75;1.50;;;;;10.11;57.95;100016.56;5041742;28;46243;-43
2022/02/14 08:39:58;;;;;;;;;3.00;2.00;;;;;10.11;58.10;100011.31;5041749;28;45419;-44
2022/02/14 08:42:23;;;;;;;;;5.00;2.00;;;;;10.14;58.33;100014.72;5042073;28;45443;-44
2022/02/14 08:44:48;;;;;;;;;4.25;2.00;;;;;10.19;58.32;100014.63;5041691;28;45269;-43
2022/02/14 08:47:14;;;;;;;;;3.00;3.00;;;;;10.20;58.22;100017.22;5041360;28;45355;-50
2022/02/14 08:49:39;;;;;;;;;10.50;4.75;;;;;10.23;58.22;100009.25;5041868;28;45229;-45
2022/02/14 08:52:05;;;;;;;;;5.25;1.00;;;;;10.29;58.22;100018.75;5041705;28;45324;-45
2022/02/14 08:54:31;;;;;;;;;1.50;1.00;;;;;10.30;58.34;100014.34;5041603;28;45232;-43
2022/02/14 08:56:57;;;;;;;;;3.25;3.00;;;;;10.37;58.34;100011.56;5041469;28;46077;-43
2022/02/14 08:59:22;;;;;;;;;5.00;2.00;;;;;10.40;58.26;100003.63;5041417;28;45470;-47
2022/02/14 09:01:47;;;;;;;;;3.50;1.00;;;;;10.45;58.30;100006.09;5041398;28;45605;-44
2022/02/14 09:04:13;;;;;;;;;2.50;2.50;;;;;10.49;58.34;100009.53;5041677;28;45280;-43
2022/02/14 09:06:38;;;;;;;;;0.00;0.00;;;;;10.53;58.27;100008.56;5040165;28;48201;-42
2022/02/14 09:09:04;;;;;;;;;3.50;3.00;;;;;10.56;58.25;99997.97;5041415;28;45169;-42
2022/02/14 09:11:30;;;;;;;;;4.00;2.75;;;;;10.64;58.38;100003.91;5041647;28;45377;-42
2022/02/14 09:13:55;;;;;;;;;4.50;2.75;;;;;10.69;58.31;100011.63;5041314;28;45291;-43
2022/02/14 09:16:20;;;;;;;;;3.50;2.25;;;;;10.78;58.25;100013.16;5041110;28;45324;-43
2022/02/14 09:18:46;;;;;;;;;2.50;1.25;;;;;10.80;58.46;100000.84;5041347;28;45356;-46
2022/02/14 09:21:11;;;;;;;;;1.50;1.50;;;;;10.87;58.41;100018.19;5041558;28;45485;-44
2022/02/14 09:23:36;;;;;;;;;4.75;1.50;;;;;10.95;58.47;100017.97;5041253;28;45455;-43
2022/02/14 09:26:02;;;;;;;;;4.50;2.00;;;;;11.01;58.43;100021.28;5040843;28;45967;-43
2022/02/14 09:28:28;;;;;;;;;1.75;1.75;;;;;11.08;58.43;100026.38;5041257;28;45378;-44
2022/02/14 09:30:53;;;;;;;;;1.00;1.00;;;;;11.12;58.29;100023.63;5040966;28;45477;-45
2022/02/14 09:33:19;;;;;;;;;4.50;2.25;;;;;11.16;58.33;100027.03;5041044;28;45440;-45
2022/02/14 09:35:47;;;;;;;;;2.50;2.50;;;;;11.16;58.42;100025.25;5039689;28;46033;-43
2022/02/14 09:38:12;;;;;;;;;2.75;2.75;;;;;11.11;58.47;100026.31;5040965;28;45315;-48
2022/02/14 09:40:37;;;;;;;;;2.50;2.50;;;;;11.21;58.20;100015.47;5040933;28;45292;-45
2022/02/14 09:43:03;;;;;;;;;2.50;2.00;;;;;11.25;58.33;100025.94;5040741;28;45253;-47
2022/02/14 09:45:30;;;;;;;;;4.75;3.50;;;;;11.24;58.43;100027.69;5040465;28;45274;-47
2022/02/14 09:47:58;;;;;;;;;6.50;5.00;;;;;11.31;58.32;100036.28;5040488;28;45345;-43
2022/02/14 09:50:25;;;;;;;;;1.00;1.00;;;;;11.31;58.17;100052.06;5040884;28;45414;-44
2022/02/14 09:52:51;;;;;;;;;4.00;3.00;;;;;11.33;58.18;100042.34;5040702;28;45211;-44
2022/02/14 09:55:16;;;;;;;;;5.75;3.50;;;;;11.33;57.98;100040.59;5040283;28;46281;-44
2022/02/14 09:57:42;;;;;;;;;3.75;2.75;;;;;11.37;58.10;100058.00;5040821;28;45983;-44
2022/02/14 10:00:11;;;;;;;;;2.50;1.50;;;;;11.37;58.07;100063.25;5040467;28;45771;-45
2022/02/14 10:02:36;;;;;;;;;5.00;2.00;;;;;11.36;58.01;100063.31;5039384;28;45330;-45
2022/02/14 10:05:15;;;;;;;;;5.25;3.50;;;;;11.37;58.09;100060.63;5039606;28;46209;-46
2022/02/14 10:07:43;;;;;;;;;3.00;3.00;;;;;11.35;58.03;100046.66;5040632;28;45275;-45
2022/02/14 10:10:15;;;;;;;;;4.00;2.00;;;;;11.36;58.07;100058.91;5040376;28;45703;-44
2022/02/14 10:12:55;;;;;;;;;2.00;2.00;;;;;11.35;58.05;100051.06;5040370;28;45173;-47
2022/02/14 10:15:22;;;;;;;;;13.00;8.25;;;;;11.39;57.89;100065.84;5039940;28;46073;-44
2022/02/14 10:17:50;;;;;;;;;7.50;4.50;;;;;11.36;58.03;100064.16;5040274;28;45410;-44
2022/02/14 10:20:20;;;;;;;;;3.50;2.75;;;;;11.38;58.06;100062.34;5040195;28;45486;-48
2022/02/14 10:22:59;;;;;;;;;6.00;3.25;;;;;11.43;57.86;100058.72;5040293;28;45369;-45
2022/02/14 10:25:38;;;;;;;;;2.00;1.50;;;;;11.42;57.82;100055.25;5039900;28;46299;-45
2022/02/14 10:28:13;;;;;;;;;2.75;2.00;;;;;11.46;57.61;100058.63;5040112;28;45251;-45
2022/02/14 10:30:55;;;;;;;;;2.00;1.75;;;;;11.50;57.66;100076.06;5038607;28;45533;-43
2022/02/14 10:33:21;;;;;;;;;6.50;2.00;;;;;11.52;57.72;100083.00;5040240;28;45230;-45
2022/02/14 10:35:47;;;;;;;;;4.00;3.75;;;;;11.54;57.57;100081.19;5040071;28;45815;-44
2022/02/14 10:38:13;;;;;;;;;1.75;1.00;;;;;11.54;57.66;100082.97;5038927;28;45323;-45
2022/02/14 10:40:40;;;;;;;;;2.50;2.50;;;;;11.58;57.56;100099.53;5039981;28;45383;-43
2022/02/14 10:43:07;;;;;;;;;1.25;1.25;;;;;11.57;57.67;100103.06;5040044;28;45361;-45
2022/02/14 10:45:34;;;;;;;;;5.75;1.50;;;;;11.58;57.53;100097.75;5039637;28;46025;-44
2022/02/14 10:48:04;;;;;;;;;3.50;1.50;;;;;11.58;57.74;100099.53;5039838;28;45231;-44
2022/02/14 10:50:29;;;;;;;;;13.50;10.75;;;;;11.60;57.55;100082.78;5039907;28;45332;-46
2022/02/14 10:53:00;;;;;;;;;9.25;6.50;;;;;11.65;57.40;100085.28;5040069;28;45375;-43
2022/02/14 10:55:37;;;;;;;;;2.75;2.00;;;;;11.70;57.23;100084.25;5039735;28;46309;-47
2022/02/14 10:58:03;;;;;;;;;4.25;3.75;;;;;11.78;57.15;100085.78;5039836;28;45252;-47
2022/02/14 11:00:31;;;;;;;;;7.50;5.50;;;;;11.82;57.21;100079.53;5039451;28;45399;-45
2022/02/14 11:03:02;;;;;;;;;3.00;3.00;;;;;11.91;57.23;100071.38;5039837;28;45462;-45
2022/02/14 11:05:28;;;;;;;;;5.00;2.25;;;;;12.00;57.08;100065.00;5039492;28;45922;-45
2022/02/14 11:07:56;;;;;;;;;6.25;3.00;;;;;12.08;56.78;100072.66;5039707;28;45335;-42
2022/02/14 11:10:21;;;;;;;;;3.00;1.50;;;;;12.08;56.91;100055.06;5039553;28;45519;-45
2022/02/14 11:12:58;;;;;;;;;13.50;8.25;;;;;12.26;56.46;100061.50;5038366;28;45333;-45
2022/02/14 11:15:27;;;;;;;;;5.00;2.00;;;;;12.38;56.83;100068.16;5038046;28;46021;-48
2022/02/14 11:18:20;;;;;;;;;3.25;2.25;;;;;12.52;56.25;100052.75;5042192;28;45334;-44
2022/02/14 11:20:47;;;;;;;;;2.50;1.75;;;;;12.64;56.51;100059.41;5019030;28;45270;-45
2022/02/14 11:23:14;;;;;;;;;2.50;1.50;;;;;12.72;56.57;100063.56;5043041;28;45310;-45
2022/02/14 11:25:49;;;;;;;;;3.75;2.50;;;;;12.83;55.94;100049.09;5042850;28;45417;-46
2022/02/14 11:28:31;;;;;;;;;2.00;1.00;;;;;12.90;56.42;100049.72;5042893;28;45393;-48